createdAt,value
2023-05-09T00:01:51.356Z,13.33
2023-05-09T00:04:19.909Z,13.47
2023-05-09T00:06:47.515Z,13.37
2023-05-09T00:09:14.813Z,12.88
2023-05-09T00:11:42.470Z,12.85
2023-05-09T00:14:10.652Z,12.84
2023-05-09T00:16:38.174Z,13.04
2023-05-09T00:19:05.820Z,12.84
2023-05-09T00:21:34.634Z,12.87
2023-05-09T00:24:04.407Z,12.84
2023-05-09T00:26:32.595Z,12.48
2023-05-09T00:29:00.501Z,12.76
2023-05-09T00:31:28.126Z,12.71
2023-05-09T00:33:56.156Z,12.54
2023-05-09T00:36:23.793Z,12.60
2023-05-09T00:38:51.340Z,12.77
2023-05-09T00:41:18.785Z,12.92
2023-05-09T00:43:46.595Z,12.64
2023-05-09T00:46:14.016Z,12.47
2023-05-09T00:48:41.669Z,12.71
2023-05-09T00:51:09.058Z,12.72
2023-05-09T00:53:36.488Z,12.68
2023-05-09T00:56:04.620Z,12.62
2023-05-09T00:58:32.220Z,12.46
2023-05-09T01:01:01.835Z,12.63
2023-05-09T01:03:30.419Z,12.71
2023-05-09T01:06:10.052Z,12.76
2023-05-09T01:08:41.503Z,12.65
2023-05-09T01:11:13.734Z,12.45
2023-05-09T01:13:44.880Z,12.49
2023-05-09T01:16:31.352Z,12.30
2023-05-09T01:19:02.441Z,12.13
2023-05-09T01:21:30.551Z,12.11
2023-05-09T01:24:17.657Z,12.07
2023-05-09T01:26:46.845Z,12.15
2023-05-09T01:29:23.062Z,12.23
2023-05-09T01:31:51.009Z,12.45
2023-05-09T01:34:18.559Z,12.35
2023-05-09T01:36:45.798Z,12.25
2023-05-09T01:39:14.292Z,12.12
2023-05-09T01:41:42.775Z,11.84
2023-05-09T01:44:11.571Z,12.02
2023-05-09T01:46:39.524Z,11.92
2023-05-09T01:49:07.610Z,12.00
2023-05-09T01:51:36.183Z,11.85
2023-05-09T01:54:04.568Z,11.84
2023-05-09T01:56:32.275Z,11.92
2023-05-09T01:58:59.476Z,11.99
2023-05-09T02:01:27.189Z,12.02
2023-05-09T02:03:54.813Z,12.10
2023-05-09T02:06:22.419Z,12.05
2023-05-09T02:08:51.581Z,12.10
2023-05-09T02:11:19.474Z,12.14
2023-05-09T02:13:46.713Z,12.17
2023-05-09T02:16:14.112Z,12.08
2023-05-09T02:18:42.221Z,12.18
2023-05-09T02:21:10.119Z,12.14
2023-05-09T02:23:38.560Z,12.15
2023-05-09T02:26:06.412Z,12.20
2023-05-09T02:28:33.937Z,12.20
2023-05-09T02:31:02.436Z,12.13
2023-05-09T02:33:39.008Z,11.89
2023-05-09T02:36:08.332Z,11.99
2023-05-09T02:38:36.163Z,11.99
2023-05-09T02:41:03.525Z,12.11
2023-05-09T02:43:30.741Z,12.05
2023-05-09T02:45:59.289Z,11.87
2023-05-09T02:48:29.133Z,11.68
2023-05-09T02:50:58.958Z,11.72
2023-05-09T02:53:27.356Z,11.60
2023-05-09T02:55:54.774Z,11.51
2023-05-09T02:58:22.300Z,11.43
2023-05-09T03:00:50.988Z,11.41
2023-05-09T03:03:19.257Z,11.28
2023-05-09T03:05:47.588Z,11.34
2023-05-09T03:08:16.348Z,11.13
2023-05-09T03:10:44.336Z,11.17
2023-05-09T03:13:11.984Z,11.21
2023-05-09T03:15:40.133Z,11.11
2023-05-09T03:18:09.138Z,10.90
2023-05-09T03:20:36.697Z,11.08
2023-05-09T03:23:04.561Z,11.02
2023-05-09T03:25:33.173Z,11.05
2023-05-09T03:28:00.852Z,11.16
2023-05-09T03:30:28.963Z,10.76
2023-05-09T03:32:57.276Z,10.97
2023-05-09T03:35:25.632Z,10.71
2023-05-09T03:37:53.841Z,10.68
2023-05-09T03:40:21.318Z,10.40
2023-05-09T03:42:49.170Z,10.38
2023-05-09T03:45:16.926Z,10.51
2023-05-09T03:47:46.308Z,10.13
2023-05-09T03:50:21.067Z,10.38
2023-05-09T03:52:50.506Z,10.52
2023-05-09T03:55:19.513Z,10.59
2023-05-09T03:57:47.133Z,10.83
2023-05-09T04:00:16.052Z,10.72
2023-05-09T04:02:46.837Z,11.05
2023-05-09T04:05:16.761Z,11.23
2023-05-09T04:07:47.208Z,11.23
2023-05-09T04:10:18.036Z,11.38
2023-05-09T04:12:47.013Z,11.24
2023-05-09T04:15:16.038Z,11.35
2023-05-09T04:17:45.784Z,11.10
2023-05-09T04:20:17.855Z,11.39
2023-05-09T04:22:46.998Z,11.51
2023-05-09T04:25:20.317Z,11.99
2023-05-09T04:27:48.535Z,12.22
2023-05-09T04:30:16.719Z,11.77
2023-05-09T04:32:48.056Z,12.02
2023-05-09T04:35:18.050Z,12.62
2023-05-09T04:37:47.689Z,12.40
2023-05-09T04:40:18.405Z,11.89
2023-05-09T04:42:53.777Z,12.56
2023-05-09T04:45:27.907Z,12.29
2023-05-09T04:47:55.394Z,12.43
2023-05-09T04:50:23.674Z,12.72
2023-05-09T04:52:51.816Z,12.65
2023-05-09T04:55:21.292Z,12.79
2023-05-09T04:57:55.044Z,13.00
2023-05-09T05:00:25.735Z,12.76
2023-05-09T05:02:53.847Z,12.79
2023-05-09T05:05:25.403Z,12.76
2023-05-09T05:07:55.064Z,12.67
2023-05-09T05:10:24.444Z,12.90
2023-05-09T05:12:55.038Z,12.68
2023-05-09T05:15:24.296Z,12.97
2023-05-09T05:17:58.098Z,13.53
2023-05-09T05:20:28.760Z,13.40
2023-05-09T05:22:58.558Z,13.43
2023-05-09T05:25:31.354Z,13.60
2023-05-09T05:28:00.741Z,13.88
2023-05-09T05:30:30.382Z,13.55
2023-05-09T05:33:06.750Z,13.24
2023-05-09T05:35:35.706Z,13.73
2023-05-09T05:38:04.999Z,13.91
2023-05-09T05:40:32.623Z,13.70
2023-05-09T05:43:02.328Z,13.77
2023-05-09T05:45:31.584Z,13.66
2023-05-09T05:47:59.981Z,13.77
2023-05-09T05:50:30.203Z,14.14
2023-05-09T05:52:58.563Z,13.77
2023-05-09T05:55:32.124Z,13.99
2023-05-09T05:58:01.586Z,14.39
2023-05-09T06:00:30.816Z,14.22
2023-05-09T06:02:59.161Z,13.45
2023-05-09T06:05:30.306Z,13.65
2023-05-09T06:10:33.236Z,13.51
2023-05-09T06:13:01.614Z,13.95
2023-05-09T06:15:31.879Z,13.71
2023-05-09T06:18:02.378Z,13.72
2023-05-09T06:20:31.019Z,13.67
2023-05-09T06:22:59.946Z,14.17
2023-05-09T06:25:32.096Z,14.34
2023-05-09T06:28:04.037Z,14.40
2023-05-09T06:30:31.865Z,14.35
2023-05-09T06:33:00.247Z,14.41
2023-05-09T06:35:28.295Z,14.51
2023-05-09T06:37:56.099Z,14.85
2023-05-09T06:40:23.885Z,14.71
2023-05-09T06:42:51.874Z,14.71
2023-05-09T06:45:22.204Z,15.16
2023-05-09T06:47:50.202Z,14.82
2023-05-09T06:50:22.797Z,15.44
2023-05-09T06:52:51.192Z,15.40
2023-05-09T06:55:22.139Z,15.07
2023-05-09T06:57:49.845Z,15.17
2023-05-09T07:00:18.349Z,15.05
2023-05-09T07:02:46.664Z,15.81
2023-05-09T07:05:14.449Z,15.30
2023-05-09T07:07:42.340Z,15.39
2023-05-09T07:10:12.359Z,15.43
2023-05-09T07:12:45.540Z,15.54
2023-05-09T07:15:15.572Z,15.53
2023-05-09T07:17:50.225Z,15.61
2023-05-09T07:20:19.069Z,15.50
2023-05-09T07:22:47.101Z,15.87
2023-05-09T07:25:16.278Z,15.59
2023-05-09T07:27:44.913Z,16.31
2023-05-09T07:30:17.460Z,15.83
2023-05-09T07:32:47.582Z,16.31
2023-05-09T07:35:15.755Z,16.54
2023-05-09T07:37:47.947Z,16.70
2023-05-09T07:40:17.300Z,16.69
2023-05-09T07:42:50.115Z,16.74
2023-05-09T07:45:19.996Z,17.31
2023-05-09T07:47:49.653Z,17.59
2023-05-09T07:50:18.467Z,17.26
2023-05-09T07:52:55.187Z,17.34
2023-05-09T07:55:23.461Z,17.66
2023-05-09T07:57:53.097Z,17.72
2023-05-09T08:00:24.189Z,17.15
2023-05-09T08:02:54.198Z,17.49
2023-05-09T08:05:23.157Z,17.54
2023-05-09T08:07:50.786Z,17.67
2023-05-09T08:10:18.921Z,17.82
2023-05-09T08:12:49.172Z,17.93
2023-05-09T08:15:30.943Z,18.20
2023-05-09T08:17:59.204Z,18.15
2023-05-09T08:20:27.700Z,18.04
2023-05-09T08:22:55.360Z,18.17
2023-05-09T08:25:25.665Z,18.49
2023-05-09T08:27:53.993Z,18.97
2023-05-09T08:30:24.108Z,18.39
2023-05-09T08:32:53.136Z,18.56
2023-05-09T08:35:26.003Z,18.81
2023-05-09T08:37:54.104Z,19.12
2023-05-09T08:40:22.516Z,19.16
2023-05-09T08:42:54.311Z,18.84
2023-05-09T08:45:23.567Z,19.30
2023-05-09T08:47:51.254Z,19.65
2023-05-09T08:50:19.555Z,19.51
2023-05-09T08:52:50.006Z,18.33
2023-05-09T08:55:17.797Z,18.84
2023-05-09T08:57:45.283Z,18.98
2023-05-09T09:00:15.971Z,18.78
2023-05-09T09:02:47.067Z,18.75
2023-05-09T09:05:39.505Z,18.76
2023-05-09T09:08:07.701Z,19.09
2023-05-09T09:10:40.194Z,19.15
2023-05-09T09:13:10.263Z,19.02
2023-05-09T09:15:38.981Z,19.21
2023-05-09T09:18:09.218Z,19.69
2023-05-09T09:20:46.059Z,19.14
2023-05-09T09:23:16.014Z,18.75
2023-05-09T09:25:45.799Z,19.15
2023-05-09T09:28:18.231Z,19.27
2023-05-09T09:30:49.258Z,19.59
2023-05-09T09:33:21.975Z,19.48
2023-05-09T09:35:51.724Z,19.88
2023-05-09T09:38:20.756Z,20.12
2023-05-09T09:40:52.275Z,19.82
2023-05-09T09:43:21.196Z,19.73
2023-05-09T09:45:51.830Z,20.46
2023-05-09T09:48:26.424Z,20.25
2023-05-09T09:50:59.239Z,20.41
2023-05-09T09:53:30.344Z,20.90
2023-05-09T09:55:58.687Z,20.80
2023-05-09T09:58:27.727Z,20.94
2023-05-09T10:01:08.060Z,20.77
2023-05-09T10:03:37.485Z,20.73
2023-05-09T10:06:05.822Z,20.75
2023-05-09T10:08:34.037Z,20.36
2023-05-09T10:11:04.997Z,19.91
2023-05-09T10:13:35.930Z,19.97
2023-05-09T10:16:05.227Z,19.73
2023-05-09T10:18:37.596Z,19.55
2023-05-09T10:21:07.156Z,19.69
2023-05-09T10:23:37.595Z,20.26
2023-05-09T10:26:09.018Z,19.58
2023-05-09T10:28:37.106Z,19.63
2023-05-09T10:31:11.789Z,20.42
2023-05-09T10:33:43.605Z,20.14
2023-05-09T10:36:11.219Z,20.17
2023-05-09T10:38:39.084Z,19.65
2023-05-09T10:41:10.254Z,20.12
2023-05-09T10:43:37.748Z,20.08
2023-05-09T10:46:05.343Z,20.68
2023-05-09T10:48:38.005Z,20.65
2023-05-09T10:51:12.170Z,20.27
2023-05-09T10:53:47.997Z,20.93
2023-05-09T10:56:27.135Z,20.69
2023-05-09T10:58:55.146Z,20.47
2023-05-09T11:01:37.226Z,20.06
2023-05-09T11:04:12.137Z,19.86
2023-05-09T11:06:51.629Z,20.23
2023-05-09T11:09:33.319Z,19.89
2023-05-09T11:12:08.679Z,19.50
2023-05-09T11:14:47.107Z,19.58
2023-05-09T11:17:22.146Z,19.61
2023-05-09T11:19:52.066Z,20.07
2023-05-09T11:22:22.433Z,20.27
2023-05-09T11:25:17.328Z,20.00
2023-05-09T11:27:46.140Z,20.35
2023-05-09T11:30:15.737Z,20.76
2023-05-09T11:32:51.700Z,21.52
2023-05-09T11:35:21.069Z,21.21
2023-05-09T11:37:49.147Z,21.22
2023-05-09T11:40:18.097Z,21.12
2023-05-09T11:42:51.004Z,20.03
2023-05-09T11:45:18.895Z,20.77
2023-05-09T11:47:49.333Z,20.37
2023-05-09T11:50:22.215Z,20.82
2023-05-09T11:52:50.175Z,20.89
2023-05-09T11:55:19.885Z,20.70
2023-05-09T11:57:50.513Z,20.35
2023-05-09T12:00:20.668Z,19.85
2023-05-09T12:02:54.881Z,20.44
2023-05-09T12:05:25.071Z,20.87
2023-05-09T12:07:55.355Z,20.88
2023-05-09T12:10:23.455Z,21.11
2023-05-09T12:12:56.180Z,20.78
2023-05-09T12:15:28.088Z,21.00
2023-05-09T12:18:01.141Z,21.29
2023-05-09T12:20:42.557Z,21.04
2023-05-09T12:23:12.722Z,20.55
2023-05-09T12:25:55.044Z,20.24
2023-05-09T12:28:29.315Z,19.86
2023-05-09T12:30:58.904Z,20.05
2023-05-09T12:33:31.648Z,20.07
2023-05-09T12:36:04.108Z,20.49
2023-05-09T12:38:37.282Z,21.23
2023-05-09T12:41:07.929Z,21.47
2023-05-09T12:43:41.569Z,21.26
2023-05-09T12:46:12.065Z,21.51
2023-05-09T12:48:51.153Z,21.44
2023-05-09T12:51:20.645Z,20.70
2023-05-09T12:53:50.309Z,21.30
2023-05-09T12:56:20.741Z,21.22
2023-05-09T12:58:54.087Z,21.43
2023-05-09T13:01:29.215Z,21.63
2023-05-09T13:04:07.389Z,21.38
2023-05-09T13:06:48.273Z,21.74
2023-05-09T13:09:24.231Z,22.20
2023-05-09T13:11:53.182Z,21.42
2023-05-09T13:14:25.356Z,21.08
2023-05-09T13:16:54.119Z,21.00
2023-05-09T13:19:21.851Z,20.98
2023-05-09T13:21:50.458Z,20.65
2023-05-09T13:24:20.572Z,20.63
2023-05-09T13:26:48.560Z,21.27
2023-05-09T13:29:30.193Z,21.46
2023-05-09T13:32:01.516Z,21.62
2023-05-09T13:34:36.904Z,21.25
2023-05-09T13:39:51.199Z,20.32
2023-05-09T13:42:19.557Z,20.97
2023-05-09T13:44:48.129Z,21.33
2023-05-09T13:47:23.549Z,20.76
2023-05-09T13:49:53.985Z,20.66
2023-05-09T13:52:28.029Z,20.41
2023-05-09T13:54:57.580Z,20.96
2023-05-09T13:57:28.093Z,21.11
2023-05-09T13:59:59.986Z,20.38
2023-05-09T14:02:33.925Z,20.57
2023-05-09T14:05:04.859Z,20.41
2023-05-09T14:07:34.552Z,20.76
2023-05-09T14:10:15.841Z,20.95
2023-05-09T14:12:47.567Z,20.77
2023-05-09T14:15:16.786Z,20.84
2023-05-09T14:17:45.056Z,20.67
2023-05-09T14:20:16.554Z,20.83
2023-05-09T14:22:47.080Z,21.15
2023-05-09T14:25:21.146Z,21.04
2023-05-09T14:27:53.215Z,21.66
2023-05-09T14:30:29.138Z,21.32
2023-05-09T14:33:00.038Z,21.27
2023-05-09T14:35:36.627Z,21.89
2023-05-09T14:38:09.674Z,21.55
2023-05-09T14:40:40.205Z,21.56
2023-05-09T14:43:12.916Z,20.87
2023-05-09T14:45:43.274Z,21.18
2023-05-09T14:48:15.264Z,21.19
2023-05-09T14:50:57.237Z,21.09
2023-05-09T14:53:33.211Z,21.46
2023-05-09T14:56:07.556Z,20.92
2023-05-09T15:01:26.286Z,20.28
2023-05-09T15:03:54.818Z,20.92
2023-05-09T15:06:31.677Z,20.74
2023-05-09T15:09:01.822Z,20.54
2023-05-09T15:11:46.740Z,21.17
2023-05-09T15:14:23.665Z,20.41
2023-05-09T15:16:59.246Z,20.39
2023-05-09T15:19:31.948Z,21.11
2023-05-09T15:22:04.161Z,21.04
2023-05-09T15:24:36.678Z,21.00
2023-05-09T15:27:08.842Z,20.45
2023-05-09T15:29:49.392Z,20.44
2023-05-09T15:32:24.706Z,20.11
2023-05-09T15:34:53.776Z,20.08
2023-05-09T15:37:24.940Z,19.89
2023-05-09T15:39:55.428Z,20.05
2023-05-09T15:42:25.692Z,20.45
2023-05-09T15:44:57.688Z,20.19
2023-05-09T15:47:27.411Z,20.60
2023-05-09T15:50:04.208Z,20.85
2023-05-09T15:52:38.232Z,20.74
2023-05-09T15:55:06.249Z,20.81
2023-05-09T16:02:47.339Z,20.48
2023-05-09T16:08:00.100Z,20.14
2023-05-09T16:10:35.222Z,20.34
2023-05-09T16:13:14.156Z,20.20
2023-05-09T16:15:48.291Z,20.47
2023-05-09T16:18:18.034Z,20.65
2023-05-09T16:20:50.644Z,20.27
2023-05-09T16:23:20.158Z,20.38
2023-05-09T16:25:50.300Z,20.38
2023-05-09T16:28:23.132Z,19.95
2023-05-09T16:31:04.781Z,20.27
2023-05-09T16:33:45.100Z,20.52
2023-05-09T16:36:15.842Z,20.16
2023-05-09T16:38:44.817Z,19.89
2023-05-09T16:41:14.086Z,20.08
2023-05-09T16:43:48.173Z,20.04
2023-05-09T16:46:16.480Z,19.63
2023-05-09T16:48:54.454Z,19.02
2023-05-09T16:51:34.095Z,19.06
2023-05-09T16:59:18.129Z,19.62
2023-05-09T17:01:48.827Z,19.54
2023-05-09T17:04:20.721Z,19.92
2023-05-09T17:06:51.419Z,20.10
2023-05-09T17:12:04.253Z,20.28
2023-05-09T17:14:35.075Z,19.93
2023-05-09T17:17:03.859Z,20.07
2023-05-09T17:19:34.122Z,20.14
2023-05-09T17:22:09.009Z,20.13
2023-05-09T17:24:41.082Z,20.12
2023-05-09T17:27:19.295Z,20.20
2023-05-09T17:29:54.442Z,19.88
2023-05-09T17:32:21.905Z,19.85
2023-05-09T17:34:57.112Z,19.81
2023-05-09T17:40:08.003Z,19.56
2023-05-09T17:42:44.505Z,19.45
2023-05-09T17:45:19.127Z,19.54
2023-05-09T17:47:51.274Z,19.38
2023-05-09T17:50:25.087Z,19.51
2023-05-09T17:52:58.875Z,19.36
2023-05-09T17:55:31.692Z,19.43
2023-05-09T17:58:03.070Z,19.49
2023-05-09T18:00:38.197Z,19.47
2023-05-09T18:03:11.893Z,19.41
2023-05-09T18:05:44.605Z,19.57
2023-05-09T18:08:14.323Z,19.37
2023-05-09T18:10:50.278Z,19.42
2023-05-09T18:13:26.055Z,19.48
2023-05-09T18:16:00.164Z,19.53
2023-05-09T18:18:35.303Z,19.28
2023-05-09T18:21:05.822Z,19.39
2023-05-09T18:23:33.983Z,19.22
2023-05-09T18:26:02.496Z,19.28
2023-05-09T18:28:43.300Z,19.36
2023-05-09T18:33:54.462Z,19.16
2023-05-09T18:36:27.980Z,18.97
2023-05-09T18:38:57.082Z,19.21
2023-05-09T18:41:26.813Z,19.07
2023-05-09T18:46:40.119Z,18.80
2023-05-09T18:49:20.133Z,18.68
2023-05-09T18:51:58.239Z,18.79
2023-05-09T18:54:41.182Z,18.64
2023-05-09T18:57:10.127Z,18.48
2023-05-09T18:59:46.128Z,18.36
2023-05-09T19:02:20.702Z,18.49
2023-05-09T19:04:58.302Z,18.47
2023-05-09T19:07:26.511Z,18.59
2023-05-09T19:09:59.102Z,18.62
2023-05-09T19:12:31.483Z,18.66
2023-05-09T19:15:14.213Z,18.54
2023-05-09T19:17:42.380Z,18.41
2023-05-09T19:20:10.788Z,18.22
2023-05-09T19:22:50.307Z,18.17
2023-05-09T19:25:30.113Z,18.11
2023-05-09T19:28:00.722Z,18.13
2023-05-09T19:30:29.303Z,17.98
2023-05-09T19:33:00.255Z,17.75
2023-05-09T19:35:41.471Z,18.14
2023-05-09T19:38:13.104Z,18.12
2023-05-09T19:40:51.201Z,17.95
2023-05-09T19:43:19.565Z,18.06
2023-05-09T19:45:47.080Z,17.76
2023-05-09T19:48:17.098Z,17.95
2023-05-09T19:50:58.092Z,17.84
2023-05-09T19:53:40.239Z,17.86
2023-05-09T19:56:09.640Z,17.85
2023-05-09T19:58:44.243Z,17.95
2023-05-09T20:01:14.044Z,17.94
2023-05-09T20:03:47.238Z,17.95
2023-05-09T20:06:25.877Z,17.78
2023-05-09T20:08:55.491Z,17.84
2023-05-09T20:11:23.213Z,17.65
2023-05-09T20:13:53.690Z,17.89
2023-05-09T20:16:25.934Z,17.99
2023-05-09T20:18:57.067Z,17.72
2023-05-09T20:21:27.664Z,17.61
2023-05-09T20:23:58.447Z,17.53
2023-05-09T20:26:29.069Z,17.80
2023-05-09T20:29:04.056Z,17.86
2023-05-09T20:31:35.853Z,17.72
2023-05-09T20:34:03.500Z,17.65
2023-05-09T20:36:33.047Z,17.05
2023-05-09T20:39:03.746Z,17.20
2023-05-09T20:41:33.057Z,17.12
2023-05-09T20:44:04.096Z,17.13
2023-05-09T20:46:32.203Z,17.33
2023-05-09T20:49:01.050Z,17.43
2023-05-09T20:51:28.886Z,17.35
2023-05-09T20:53:58.114Z,17.23
2023-05-09T20:56:29.544Z,17.28
2023-05-09T20:59:00.964Z,17.30
2023-05-09T21:01:36.953Z,17.49
2023-05-09T21:04:10.804Z,17.20
2023-05-09T21:06:38.913Z,17.11
2023-05-09T21:09:07.046Z,17.20
2023-05-09T21:11:35.019Z,17.35
2023-05-09T21:14:04.189Z,16.92
2023-05-09T21:16:33.084Z,17.02
2023-05-09T21:19:03.106Z,17.05
2023-05-09T21:21:33.044Z,17.00
2023-05-09T21:24:09.228Z,17.11
2023-05-09T21:26:36.789Z,17.23
2023-05-09T21:29:07.257Z,16.88
2023-05-09T21:31:38.282Z,16.97
2023-05-09T21:34:10.215Z,16.87
2023-05-09T21:36:39.163Z,16.80
2023-05-09T21:39:11.138Z,16.72
2023-05-09T21:41:39.953Z,16.70
2023-05-09T21:44:08.442Z,16.71
2023-05-09T21:46:36.349Z,16.67
2023-05-09T21:49:04.558Z,16.74
2023-05-09T21:51:33.550Z,16.82
2023-05-09T21:54:02.008Z,16.96
2023-05-09T21:56:31.372Z,16.62
2023-05-09T21:58:59.015Z,16.65
2023-05-09T22:01:27.006Z,16.41
2023-05-09T22:04:01.111Z,16.57
2023-05-09T22:06:28.651Z,16.54
2023-05-09T22:08:56.820Z,16.35
2023-05-09T22:11:24.604Z,16.58
2023-05-09T22:13:54.117Z,16.45
2023-05-09T22:16:22.422Z,16.52
2023-05-09T22:18:49.932Z,16.56
2023-05-09T22:21:18.567Z,16.51
2023-05-09T22:23:46.298Z,16.28
2023-05-09T22:26:13.470Z,16.54
2023-05-09T22:28:41.063Z,16.27
2023-05-09T22:31:08.831Z,16.32
2023-05-09T22:33:36.534Z,15.91
2023-05-09T22:36:04.105Z,16.21
2023-05-09T22:38:31.735Z,16.17
2023-05-09T22:40:59.144Z,16.41
2023-05-09T22:43:28.884Z,16.23
2023-05-09T22:46:05.126Z,16.35
2023-05-09T22:48:33.522Z,16.13
2023-05-09T22:51:00.908Z,16.21
2023-05-09T22:53:29.473Z,16.17
2023-05-09T22:55:58.822Z,16.32
2023-05-09T22:58:26.641Z,16.23
2023-05-09T23:00:54.550Z,15.96
2023-05-09T23:03:22.331Z,16.19
2023-05-09T23:05:50.434Z,15.94
2023-05-09T23:08:17.920Z,16.03
2023-05-09T23:10:47.371Z,16.19
2023-05-09T23:13:15.010Z,16.22
2023-05-09T23:15:42.875Z,16.09
2023-05-09T23:18:10.404Z,16.06
2023-05-09T23:20:37.844Z,15.99
2023-05-09T23:23:06.848Z,16.08
2023-05-09T23:25:34.433Z,15.82
2023-05-09T23:28:02.697Z,15.87
2023-05-09T23:30:34.511Z,15.84
2023-05-09T23:33:05.151Z,15.71
2023-05-09T23:35:32.911Z,15.75
2023-05-09T23:38:00.475Z,15.73
2023-05-09T23:40:27.940Z,15.79
2023-05-09T23:42:56.061Z,15.83
2023-05-09T23:45:23.530Z,15.67
2023-05-09T23:47:52.067Z,15.30
2023-05-09T23:50:20.952Z,15.40
2023-05-09T23:52:51.156Z,15.51
2023-05-09T23:55:18.635Z,15.49
2023-05-09T23:57:46.469Z,15.61
